Main page
METAR-TAF:

METAR-TAF

Airports :

Chaitén Airfield

Chaitén, Chile

latitude: 42-55-58S, longitude: 072-41-58W, elevation: 4 m

Current weather observation

The report was made 52 minutes ago, at 09:00 UTC
Calm wind
Temperature 7°C
Humidity 100%
Pressure 1025 hPa
Visibility 10 km or more
Overcast at a height of 3800 ft

METAR: SCTN 160900Z AUTO 00000KT 9999 OVC038 07/07 Q1025

Time: 05:52 (09:52 UTC)


TAF: missing

Weather observations and forecasts of more than 4000 airports (METAR and TAF reports).

The available stations are represented by yellow and red dots on the map.

Hover mouse over dot to see the name of the station.

Then click to see weather observations and forecasts.

To change the map : click on the green buttons with a black cross to zoom in, on the green button with a dash to zoom out, or on the green arrows for adjacent maps.


METAR-TAF: